createdAt,value
2022-12-27T00:01:35.752Z,5.85
2022-12-27T00:04:03.788Z,5.82
2022-12-27T00:06:32.546Z,5.76
2022-12-27T00:09:01.900Z,5.76
2022-12-27T00:11:30.216Z,5.78
2022-12-27T00:14:01.205Z,5.56
2022-12-27T00:16:29.290Z,5.64
2022-12-27T00:18:57.983Z,5.65
2022-12-27T00:21:28.400Z,5.47
2022-12-27T00:23:57.644Z,5.45
2022-12-27T00:26:28.660Z,5.38
2022-12-27T00:28:57.139Z,5.36
2022-12-27T00:31:28.432Z,5.24
2022-12-27T00:33:59.019Z,5.30
2022-12-27T00:36:29.053Z,5.16
2022-12-27T00:38:59.188Z,4.92
2022-12-27T00:41:28.341Z,5.13
2022-12-27T00:43:56.655Z,5.05
2022-12-27T00:46:25.328Z,4.88
2022-12-27T00:48:55.494Z,4.86
2022-12-27T00:51:25.763Z,4.90
2022-12-27T00:53:55.812Z,4.87
2022-12-27T00:56:26.585Z,4.69
2022-12-27T00:58:55.483Z,4.70
2022-12-27T01:01:26.117Z,4.82
2022-12-27T01:03:57.240Z,4.71
2022-12-27T01:06:28.850Z,4.62
2022-12-27T01:09:00.991Z,4.59
2022-12-27T01:11:30.461Z,4.57
2022-12-27T01:14:04.206Z,4.43
2022-12-27T01:16:33.060Z,4.13
2022-12-27T01:19:03.058Z,4.20
2022-12-27T01:21:31.499Z,4.28
2022-12-27T01:24:00.102Z,4.39
2022-12-27T01:26:29.609Z,4.18
2022-12-27T01:28:57.953Z,4.32
2022-12-27T01:31:28.741Z,4.13
2022-12-27T01:33:58.587Z,4.27
2022-12-27T01:36:30.983Z,4.27
2022-12-27T01:39:00.664Z,4.28
2022-12-27T01:41:48.681Z,4.10
2022-12-27T01:44:53.954Z,4.34
2022-12-27T01:47:30.963Z,3.91
2022-12-27T01:50:06.446Z,3.53
2022-12-27T01:52:40.151Z,3.84
2022-12-27T01:55:15.067Z,3.85
2022-12-27T01:57:44.690Z,4.03
2022-12-27T02:00:13.940Z,3.81
2022-12-27T02:02:42.721Z,3.50
2022-12-27T02:05:14.692Z,3.53
2022-12-27T02:07:54.457Z,3.42
2022-12-27T02:10:22.785Z,3.23
2022-12-27T02:12:51.200Z,3.24
2022-12-27T02:15:20.014Z,3.11
2022-12-27T02:17:48.432Z,3.23
2022-12-27T02:20:20.206Z,3.43
2022-12-27T02:23:41.562Z,3.47
2022-12-27T02:26:45.924Z,3.30
2022-12-27T02:29:44.244Z,3.67
2022-12-27T02:32:18.146Z,3.55
2022-12-27T02:34:55.408Z,3.36
2022-12-27T02:37:26.896Z,3.66
2022-12-27T02:40:18.177Z,3.68
2022-12-27T02:43:05.554Z,3.28
2022-12-27T02:46:00.920Z,3.70
2022-12-27T02:48:46.775Z,3.52
2022-12-27T02:51:50.421Z,3.19
2022-12-27T02:54:36.800Z,3.09
2022-12-27T02:57:15.851Z,3.45
2022-12-27T03:00:21.240Z,3.77
2022-12-27T03:03:24.757Z,3.53
2022-12-27T03:06:16.007Z,3.29
2022-12-27T03:08:54.999Z,3.21
2022-12-27T03:11:44.163Z,3.25
2022-12-27T03:14:33.011Z,3.23
2022-12-27T03:17:06.401Z,3.10
2022-12-27T03:19:58.963Z,3.04
2022-12-27T03:22:47.625Z,2.92
2022-12-27T03:25:30.172Z,2.88
2022-12-27T03:28:19.283Z,2.78
2022-12-27T03:31:21.988Z,2.88
2022-12-27T03:33:59.736Z,2.96
2022-12-27T03:36:47.368Z,3.10
2022-12-27T03:39:27.277Z,2.84
2022-12-27T03:42:20.561Z,2.59
2022-12-27T03:44:48.831Z,2.66
2022-12-27T03:47:28.437Z,2.66
2022-12-27T03:50:07.784Z,2.45
2022-12-27T03:52:42.579Z,2.55
2022-12-27T03:55:11.867Z,2.63
2022-12-27T03:57:41.798Z,2.53
2022-12-27T04:00:11.570Z,2.46
2022-12-27T04:02:45.034Z,2.46
2022-12-27T04:05:13.449Z,2.41
2022-12-27T04:08:02.546Z,2.60
2022-12-27T04:10:48.988Z,2.38
2022-12-27T04:13:34.835Z,2.48
2022-12-27T04:16:20.928Z,2.39
2022-12-27T04:19:06.867Z,2.47
2022-12-27T04:21:52.806Z,2.56
2022-12-27T04:24:40.051Z,2.61
2022-12-27T04:27:26.045Z,2.68
2022-12-27T04:30:12.083Z,2.52
2022-12-27T04:32:58.974Z,2.28
2022-12-27T04:35:27.396Z,2.34
2022-12-27T04:37:57.769Z,2.40
2022-12-27T04:40:44.865Z,2.53
2022-12-27T04:43:31.031Z,2.38
2022-12-27T04:46:16.718Z,2.30
2022-12-27T04:49:02.781Z,2.52
2022-12-27T04:51:48.485Z,2.22
2022-12-27T04:54:36.949Z,2.32
2022-12-27T04:57:06.675Z,2.12
2022-12-27T04:59:52.607Z,2.44
2022-12-27T05:02:23.605Z,1.91
2022-12-27T05:04:52.048Z,2.09
2022-12-27T05:07:38.027Z,1.94
2022-12-27T05:10:25.380Z,2.02
2022-12-27T05:13:12.818Z,2.07
2022-12-27T05:15:41.255Z,2.01
2022-12-27T05:18:09.813Z,1.80
2022-12-27T05:20:38.239Z,1.71
2022-12-27T05:23:24.012Z,1.71
2022-12-27T05:25:53.124Z,1.62
2022-12-27T05:28:22.956Z,1.47
2022-12-27T05:30:51.331Z,1.68
2022-12-27T05:33:20.012Z,1.65
2022-12-27T05:35:48.322Z,1.69
2022-12-27T05:38:17.007Z,1.89
2022-12-27T05:40:45.485Z,2.02
2022-12-27T05:43:13.760Z,2.15
2022-12-27T05:45:43.599Z,2.27
2022-12-27T05:48:12.972Z,1.81
2022-12-27T05:50:41.273Z,1.65
2022-12-27T05:53:13.929Z,1.69
2022-12-27T05:55:42.450Z,1.52
2022-12-27T05:58:10.730Z,1.65
2022-12-27T06:00:39.103Z,1.43
2022-12-27T06:03:08.860Z,1.47
2022-12-27T06:05:37.283Z,1.42
2022-12-27T06:08:05.990Z,1.44
2022-12-27T06:10:34.792Z,1.70
2022-12-27T06:13:03.943Z,1.48
2022-12-27T06:15:32.655Z,1.52
2022-12-27T06:18:03.497Z,1.55
2022-12-27T06:20:33.421Z,1.40
2022-12-27T06:23:01.799Z,1.42
2022-12-27T06:25:30.620Z,1.77
2022-12-27T06:27:59.289Z,1.47
2022-12-27T06:30:35.848Z,1.50
2022-12-27T06:33:04.746Z,1.47
2022-12-27T06:35:36.675Z,1.27
2022-12-27T06:38:05.002Z,1.43
2022-12-27T06:40:33.561Z,1.22
2022-12-27T06:43:01.934Z,1.44
2022-12-27T06:45:30.848Z,1.43
2022-12-27T06:47:59.293Z,1.45
2022-12-27T06:50:27.745Z,1.38
2022-12-27T06:52:57.869Z,1.21
2022-12-27T06:55:26.433Z,1.16
2022-12-27T06:57:55.181Z,1.18
2022-12-27T07:00:23.775Z,1.37
2022-12-27T07:02:52.498Z,1.39
2022-12-27T07:05:20.922Z,1.31
2022-12-27T07:07:49.248Z,1.47
2022-12-27T07:10:19.113Z,1.34
2022-12-27T07:12:47.446Z,1.43
2022-12-27T07:15:16.074Z,1.54
2022-12-27T07:17:44.530Z,1.39
2022-12-27T07:20:13.418Z,1.58
2022-12-27T07:22:41.764Z,1.58
2022-12-27T07:25:10.183Z,1.72
2022-12-27T07:27:39.858Z,1.89
2022-12-27T07:30:10.125Z,1.73
2022-12-27T07:32:38.400Z,1.91
2022-12-27T07:35:07.512Z,1.71
2022-12-27T07:37:38.322Z,1.79
2022-12-27T07:40:08.032Z,1.68
2022-12-27T07:42:36.333Z,1.74
2022-12-27T07:45:07.494Z,1.67
2022-12-27T07:47:38.108Z,1.71
2022-12-27T07:50:07.387Z,1.70
2022-12-27T07:52:35.672Z,1.84
2022-12-27T07:55:04.349Z,1.83
2022-12-27T07:57:32.727Z,1.83
2022-12-27T08:00:01.046Z,1.90
2022-12-27T08:02:30.700Z,2.26
2022-12-27T08:04:59.502Z,2.50
2022-12-27T08:07:28.007Z,2.70
2022-12-27T08:09:56.287Z,2.37
2022-12-27T08:12:24.594Z,2.56
2022-12-27T08:14:53.071Z,3.20
2022-12-27T08:17:25.196Z,2.36
2022-12-27T08:19:56.551Z,2.33
2022-12-27T08:22:25.273Z,2.40
2022-12-27T08:24:55.768Z,2.70
2022-12-27T08:27:26.921Z,2.65
2022-12-27T08:29:55.307Z,2.64
2022-12-27T08:32:23.736Z,2.59
2022-12-27T08:34:52.092Z,2.82
2022-12-27T08:37:21.724Z,2.96
2022-12-27T08:39:50.013Z,3.18
2022-12-27T08:42:18.380Z,3.19
2022-12-27T08:44:46.671Z,3.20
2022-12-27T08:47:15.127Z,3.19
2022-12-27T08:49:43.448Z,3.12
2022-12-27T08:52:11.995Z,3.22
2022-12-27T08:54:41.655Z,3.30
2022-12-27T08:57:10.005Z,3.23
2022-12-27T08:59:38.362Z,3.64
2022-12-27T09:02:07.297Z,3.75
2022-12-27T09:04:35.707Z,3.72
2022-12-27T09:07:05.008Z,3.61
2022-12-27T09:09:33.406Z,3.90
2022-12-27T09:12:08.006Z,4.03
2022-12-27T09:14:37.897Z,3.89
2022-12-27T09:17:07.233Z,3.90
2022-12-27T09:19:35.762Z,3.23
2022-12-27T09:22:04.187Z,3.20
2022-12-27T09:24:32.508Z,3.53
2022-12-27T09:27:00.961Z,3.02
2022-12-27T09:29:30.577Z,3.26
2022-12-27T09:31:58.922Z,3.42
2022-12-27T09:34:27.885Z,3.63
2022-12-27T09:36:56.270Z,3.86
2022-12-27T09:39:24.629Z,4.03
2022-12-27T09:44:56.585Z,4.20
2022-12-27T09:47:29.268Z,4.25
2022-12-27T09:50:02.039Z,4.22
2022-12-27T09:52:35.324Z,4.22
2022-12-27T09:55:07.085Z,4.36
2022-12-27T09:57:38.714Z,4.37
2022-12-27T10:00:16.426Z,4.44
2022-12-27T10:02:45.793Z,5.07
2022-12-27T10:05:21.931Z,5.02
2022-12-27T10:08:02.454Z,4.87
2022-12-27T10:10:42.122Z,4.94
2022-12-27T10:13:25.050Z,4.71
2022-12-27T10:16:06.541Z,5.05
2022-12-27T10:18:45.775Z,5.10
2022-12-27T10:21:20.552Z,5.20
2022-12-27T10:23:54.313Z,5.97
2022-12-27T10:26:23.295Z,6.02
2022-12-27T10:28:57.399Z,5.62
2022-12-27T10:31:28.664Z,5.51
2022-12-27T10:33:58.157Z,5.83
2022-12-27T10:36:28.794Z,5.90
2022-12-27T10:38:57.234Z,6.08
2022-12-27T10:41:37.153Z,6.17
2022-12-27T10:44:11.474Z,6.44
2022-12-27T10:46:49.858Z,5.74
2022-12-27T10:49:27.292Z,5.87
2022-12-27T10:52:00.149Z,5.93
2022-12-27T10:54:29.969Z,6.19
2022-12-27T10:57:17.674Z,6.15
2022-12-27T11:00:19.147Z,6.34
2022-12-27T11:02:51.426Z,5.79
2022-12-27T11:05:24.634Z,5.97
2022-12-27T11:07:53.287Z,5.76
2022-12-27T11:10:23.245Z,5.60
2022-12-27T11:13:02.951Z,5.96
2022-12-27T11:15:35.301Z,6.15
2022-12-27T11:18:10.888Z,6.53
2022-12-27T11:20:41.601Z,6.35
2022-12-27T11:23:14.631Z,6.58
2022-12-27T11:25:53.351Z,6.71
2022-12-27T11:28:28.857Z,6.79
2022-12-27T11:31:01.863Z,6.71
2022-12-27T11:33:37.383Z,6.53
2022-12-27T11:36:07.404Z,6.27
2022-12-27T11:38:38.747Z,6.40
2022-12-27T11:41:09.942Z,6.97
2022-12-27T11:43:44.101Z,7.54
2022-12-27T11:46:24.315Z,7.62
2022-12-27T11:48:57.415Z,7.78
2022-12-27T11:51:41.661Z,7.00
2022-12-27T11:54:35.166Z,7.08
2022-12-27T11:57:18.968Z,7.20
2022-12-27T12:00:00.704Z,7.64
2022-12-27T12:02:53.015Z,7.23
2022-12-27T12:05:41.888Z,7.45
2022-12-27T12:08:36.805Z,7.72
2022-12-27T12:11:16.292Z,7.75
2022-12-27T12:14:18.638Z,7.78
2022-12-27T12:17:07.562Z,7.39
2022-12-27T12:19:58.517Z,7.22
2022-12-27T12:22:44.542Z,7.45
2022-12-27T12:25:51.650Z,7.76
2022-12-27T12:28:59.211Z,7.77
2022-12-27T12:32:02.889Z,7.44
2022-12-27T12:34:57.423Z,7.81
2022-12-27T12:37:40.816Z,7.59
2022-12-27T12:40:28.671Z,7.85
2022-12-27T12:43:11.645Z,7.77
2022-12-27T12:45:52.810Z,7.81
2022-12-27T12:48:51.967Z,8.34
2022-12-27T12:51:36.848Z,8.25
2022-12-27T12:54:27.397Z,8.46
2022-12-27T12:57:09.580Z,8.64
2022-12-27T12:59:55.636Z,8.42
2022-12-27T13:02:43.612Z,8.67
2022-12-27T13:05:19.767Z,8.93
2022-12-27T13:08:02.769Z,8.84
2022-12-27T13:11:02.153Z,8.75
2022-12-27T13:13:39.079Z,8.58
2022-12-27T13:16:21.326Z,7.93
2022-12-27T13:18:58.926Z,8.12
2022-12-27T13:21:40.845Z,8.39
2022-12-27T13:24:20.482Z,8.56
2022-12-27T13:26:58.840Z,8.43
2022-12-27T13:29:46.435Z,8.27
2022-12-27T13:32:28.504Z,8.57
2022-12-27T13:35:09.079Z,8.40
2022-12-27T13:37:47.897Z,8.69
2022-12-27T13:40:35.878Z,9.27
2022-12-27T13:43:27.878Z,9.14
2022-12-27T13:46:17.792Z,8.72
2022-12-27T13:49:02.384Z,8.97
2022-12-27T13:51:44.936Z,9.48
2022-12-27T13:54:59.450Z,9.04
2022-12-27T13:58:03.945Z,8.61
2022-12-27T14:00:41.123Z,8.51
2022-12-27T14:03:50.766Z,8.55
2022-12-27T14:06:38.643Z,8.05
2022-12-27T14:09:27.632Z,7.83
2022-12-27T14:12:08.480Z,8.26
2022-12-27T14:14:41.252Z,7.97
2022-12-27T14:17:27.305Z,7.60
2022-12-27T14:20:06.839Z,7.98
2022-12-27T14:23:06.918Z,8.18
2022-12-27T14:26:12.835Z,7.90
2022-12-27T14:29:26.065Z,7.68
2022-12-27T14:32:26.931Z,7.65
2022-12-27T14:35:30.077Z,7.77
2022-12-27T14:38:42.129Z,7.63
2022-12-27T14:41:38.921Z,7.33
2022-12-27T14:44:32.823Z,7.10
2022-12-27T14:47:32.749Z,7.10
2022-12-27T14:50:52.088Z,7.19
2022-12-27T14:53:52.823Z,7.00
2022-12-27T14:56:31.628Z,6.92
2022-12-27T14:59:15.358Z,6.92
2022-12-27T15:01:53.511Z,6.88
2022-12-27T15:04:44.135Z,6.75
2022-12-27T15:07:36.305Z,6.83
2022-12-27T15:10:12.106Z,6.67
2022-12-27T15:12:47.052Z,6.52
2022-12-27T15:15:24.116Z,6.44
2022-12-27T15:18:10.362Z,6.37
2022-12-27T15:21:18.178Z,6.63
2022-12-27T15:23:54.298Z,5.96
2022-12-27T15:26:35.679Z,6.03
2022-12-27T15:29:23.845Z,5.93
2022-12-27T15:32:02.479Z,5.92
2022-12-27T15:34:47.041Z,6.01
2022-12-27T15:37:59.131Z,6.00
2022-12-27T15:40:49.383Z,5.68
2022-12-27T15:43:37.237Z,5.55
2022-12-27T15:46:23.800Z,5.65
2022-12-27T15:49:23.277Z,5.53
2022-12-27T15:51:59.865Z,5.21
2022-12-27T15:54:53.662Z,5.40
2022-12-27T15:57:46.700Z,5.45
2022-12-27T16:00:17.965Z,5.42
2022-12-27T16:02:55.192Z,5.29
2022-12-27T16:05:44.600Z,5.21
2022-12-27T16:08:26.948Z,5.31
2022-12-27T16:10:56.989Z,5.12
2022-12-27T16:13:46.728Z,5.06
2022-12-27T16:16:57.721Z,5.13
2022-12-27T16:19:54.328Z,4.91
2022-12-27T16:22:35.038Z,4.78
2022-12-27T16:25:26.955Z,4.90
2022-12-27T16:28:03.198Z,4.92
2022-12-27T16:30:39.589Z,4.99
2022-12-27T16:33:20.981Z,4.87
2022-12-27T16:36:04.881Z,4.56
2022-12-27T16:38:35.104Z,4.78
2022-12-27T16:41:15.490Z,4.47
2022-12-27T16:43:53.926Z,4.61
2022-12-27T16:46:43.136Z,4.49
2022-12-27T16:49:31.352Z,4.55
2022-12-27T16:52:15.909Z,4.63
2022-12-27T16:54:52.986Z,4.34
2022-12-27T16:57:43.053Z,4.23
2022-12-27T17:00:37.595Z,4.33
2022-12-27T17:03:31.265Z,4.46
2022-12-27T17:09:32.438Z,4.12
2022-12-27T17:12:12.420Z,3.82
2022-12-27T17:14:44.187Z,3.66
2022-12-27T17:17:18.553Z,3.84
2022-12-27T17:19:52.980Z,3.75
2022-12-27T17:22:22.381Z,4.07
2022-12-27T17:24:56.451Z,3.91
2022-12-27T17:27:46.296Z,3.80
2022-12-27T17:30:20.575Z,3.74
2022-12-27T17:33:24.546Z,3.68
2022-12-27T17:36:27.891Z,3.59
2022-12-27T17:39:11.039Z,3.85
2022-12-27T17:42:09.768Z,3.46
2022-12-27T17:44:50.242Z,3.26
2022-12-27T17:47:31.426Z,3.49
2022-12-27T17:50:02.196Z,3.35
2022-12-27T17:52:49.399Z,3.17
2022-12-27T17:55:40.076Z,3.22
2022-12-27T17:58:17.535Z,3.40
2022-12-27T18:00:55.385Z,3.43
2022-12-27T18:03:26.426Z,2.96
2022-12-27T18:05:54.857Z,3.20
2022-12-27T18:08:29.012Z,3.04
2022-12-27T18:11:01.889Z,3.50
2022-12-27T18:13:34.309Z,3.22
2022-12-27T18:16:12.971Z,3.33
2022-12-27T18:18:46.385Z,3.13
2022-12-27T18:21:24.015Z,3.40
2022-12-27T18:23:54.868Z,3.55
2022-12-27T18:26:35.493Z,3.40
2022-12-27T18:29:06.640Z,3.02
2022-12-27T18:31:38.124Z,3.32
2022-12-27T18:34:08.995Z,3.73
2022-12-27T18:36:40.949Z,3.42
2022-12-27T18:39:27.391Z,3.53
2022-12-27T18:41:57.890Z,3.01
2022-12-27T18:44:28.383Z,3.06
2022-12-27T18:47:02.046Z,3.17
2022-12-27T18:49:33.864Z,3.18
2022-12-27T18:52:03.357Z,3.37
2022-12-27T18:54:36.649Z,3.22
2022-12-27T18:57:07.251Z,3.38
2022-12-27T18:59:36.677Z,2.92
2022-12-27T19:02:34.143Z,3.36
2022-12-27T19:05:30.478Z,3.16
2022-12-27T19:08:11.400Z,3.43
2022-12-27T19:10:48.560Z,3.36
2022-12-27T19:13:23.092Z,2.98
2022-12-27T19:15:52.401Z,3.03
2022-12-27T19:18:24.771Z,3.07
2022-12-27T19:20:57.131Z,3.25
2022-12-27T19:23:29.554Z,2.85
2022-12-27T19:26:26.202Z,3.39
2022-12-27T19:29:08.910Z,3.01
2022-12-27T19:31:41.328Z,3.04
2022-12-27T19:34:14.815Z,2.91
2022-12-27T19:36:45.557Z,2.92
2022-12-27T19:39:21.020Z,2.64
2022-12-27T19:41:51.897Z,2.71
2022-12-27T19:44:20.848Z,2.66
2022-12-27T19:46:49.104Z,2.62
2022-12-27T19:52:09.117Z,2.77
2022-12-27T19:54:39.804Z,2.48
2022-12-27T19:57:13.134Z,2.45
2022-12-27T19:59:41.849Z,2.41
2022-12-27T20:02:10.965Z,2.13
2022-12-27T20:04:39.562Z,1.95
2022-12-27T20:07:07.901Z,1.80
2022-12-27T20:09:36.210Z,2.26
2022-12-27T20:12:04.948Z,1.99
2022-12-27T20:14:34.658Z,1.92
2022-12-27T20:17:03.432Z,2.45
2022-12-27T20:19:31.813Z,2.56
2022-12-27T20:22:02.237Z,2.37
2022-12-27T20:24:31.572Z,1.78
2022-12-27T20:27:00.249Z,1.71
2022-12-27T20:29:30.254Z,1.61
2022-12-27T20:32:00.648Z,1.63
2022-12-27T20:34:29.059Z,1.71
2022-12-27T20:36:58.523Z,2.23
2022-12-27T20:39:26.994Z,1.89
2022-12-27T20:41:56.247Z,1.96
2022-12-27T20:44:24.639Z,1.53
2022-12-27T20:46:52.876Z,1.46
2022-12-27T20:49:22.872Z,1.29
2022-12-27T20:51:51.225Z,1.09
2022-12-27T20:54:19.473Z,1.34
2022-12-27T20:56:50.171Z,1.20
2022-12-27T20:59:18.509Z,1.58
2022-12-27T21:01:49.335Z,1.50
2022-12-27T21:04:22.689Z,1.03
2022-12-27T21:06:51.023Z,1.37
2022-12-27T21:09:19.713Z,1.26
2022-12-27T21:11:52.016Z,1.52
2022-12-27T21:14:20.571Z,0.95
2022-12-27T21:16:49.373Z,0.97
2022-12-27T21:19:20.236Z,1.11
2022-12-27T21:21:52.495Z,1.41
2022-12-27T21:24:20.868Z,0.96
2022-12-27T21:26:56.080Z,0.96
2022-12-27T21:29:27.615Z,0.99
2022-12-27T21:31:55.976Z,0.85
2022-12-27T21:34:24.409Z,0.73
2022-12-27T21:36:54.303Z,0.68
2022-12-27T21:39:22.732Z,0.72
2022-12-27T21:41:53.288Z,1.49
2022-12-27T21:44:25.356Z,1.13
2022-12-27T21:46:56.208Z,0.61
2022-12-27T21:49:24.617Z,0.16
2022-12-27T21:51:55.763Z,0.16
2022-12-27T21:54:24.224Z,0.14
2022-12-27T21:56:52.642Z,0.17
2022-12-27T22:02:38.464Z,0.42
2022-12-27T22:05:07.784Z,0.24
2022-12-27T22:07:36.159Z,0.55
2022-12-27T22:10:04.969Z,0.63
2022-12-27T22:12:33.324Z,0.66
2022-12-27T22:15:05.231Z,0.29
2022-12-27T22:17:33.720Z,0.12
2022-12-27T22:20:03.471Z,0.44
2022-12-27T22:22:32.572Z,0.28
2022-12-27T22:25:00.930Z,0.13
2022-12-27T22:27:29.273Z,-0.11
2022-12-27T22:29:57.516Z,-0.11
2022-12-27T22:32:25.952Z,-0.17
2022-12-27T22:34:54.398Z,0.05
2022-12-27T22:37:26.151Z,0.65
2022-12-27T22:39:54.451Z,0.75
2022-12-27T22:42:22.765Z,0.51
2022-12-27T22:44:51.125Z,0.18
2022-12-27T22:47:28.006Z,0.14
2022-12-27T22:49:56.946Z,-0.01
2022-12-27T22:52:26.683Z,0.10
2022-12-27T22:55:05.280Z,0.05
2022-12-27T22:57:35.744Z,0.17
2022-12-27T23:00:06.501Z,0.14
2022-12-27T23:02:35.025Z,-0.14
2022-12-27T23:05:03.658Z,0.40
2022-12-27T23:08:03.667Z,0.12
2022-12-27T23:10:22.577Z,-0.07
2022-12-27T23:12:50.912Z,-0.16
2022-12-27T23:15:19.261Z,0.04
2022-12-27T23:17:47.895Z,-0.05
2022-12-27T23:20:16.412Z,-0.22
2022-12-27T23:22:46.183Z,-0.25
2022-12-27T23:25:15.199Z,-0.15
2022-12-27T23:27:43.578Z,-0.27
2022-12-27T23:30:13.563Z,-0.09
2022-12-27T23:32:41.934Z,-0.09
2022-12-27T23:35:10.673Z,-0.09
2022-12-27T23:37:38.983Z,0.22
2022-12-27T23:40:10.494Z,0.37
2022-12-27T23:42:38.874Z,0.31
2022-12-27T23:45:10.678Z,0.30
2022-12-27T23:47:39.045Z,0.76
2022-12-27T23:50:07.900Z,0.47
2022-12-27T23:52:36.293Z,0.27
2022-12-27T23:55:05.241Z,-0.02
2022-12-27T23:57:34.992Z,0.11
